Time;durP1;ratioP1;P1;durP2;ratioP2;P2;SDS_P1;SDS_P2;PMS_P1;PMS_P2;Temp;Humidity;BMP_temperature;BMP_pressure;BME280_temperature;BME280_humidity;BME280_pressure;Samples;Min_cycle;Max_cycle;Signal;HPM_P1;HPM_P2
2023/09/13 00:02:13;;;;;;;12.38;5.75;;;;;;;19.36;100.00;100262.22;5216579;28;20189;-72
2023/09/13 00:04:43;;;;;;;6.95;5.18;;;;;;;19.38;100.00;100244.41;5217550;28;20423;-70
2023/09/13 00:07:13;;;;;;;12.18;6.28;;;;;;;19.10;100.00;100234.16;5200217;28;20235;-72
2023/09/13 00:09:44;;;;;;;12.35;6.68;;;;;;;18.89;100.00;100225.19;5217733;28;20021;-71
2023/09/13 00:12:14;;;;;;;13.13;7.25;;;;;;;18.79;100.00;100213.59;5218143;28;20379;-72
2023/09/13 00:14:44;;;;;;;11.55;6.90;;;;;;;18.77;100.00;100199.63;5197718;28;20474;-71
2023/09/13 00:17:14;;;;;;;10.15;6.07;;;;;;;19.04;100.00;100128.69;5218440;28;20036;-71
2023/09/13 00:19:45;;;;;;;17.60;6.90;;;;;;;18.92;100.00;100073.16;5199490;28;20023;-71
2023/09/13 00:22:15;;;;;;;13.80;6.40;;;;;;;18.61;100.00;100086.22;5217435;28;20025;-72
2023/09/13 00:24:46;;;;;;;11.43;6.28;;;;;;;18.71;100.00;100108.38;5217479;28;20272;-71
2023/09/13 00:27:16;;;;;;;12.30;7.18;;;;;;;18.74;100.00;100124.91;5218615;28;20111;-72
2023/09/13 00:29:46;;;;;;;10.88;6.85;;;;;;;18.78;100.00;100123.69;5216582;28;20563;-70
2023/09/13 00:32:16;;;;;;;9.07;6.40;;;;;;;18.95;100.00;100144.44;5217205;28;20104;-72
2023/09/13 00:34:47;;;;;;;13.15;6.20;;;;;;;18.99;100.00;100170.59;5215967;28;20461;-72
2023/09/13 00:37:17;;;;;;;9.35;5.95;;;;;;;18.89;100.00;100187.25;5218145;28;20020;-72
2023/09/13 00:39:47;;;;;;;11.13;6.03;;;;;;;18.84;100.00;100185.00;5189836;28;20036;-70
2023/09/13 00:42:17;;;;;;;8.25;5.85;;;;;;;18.85;100.00;100191.13;5212563;28;20047;-72
2023/09/13 00:44:48;;;;;;;12.85;5.72;;;;;;;18.83;100.00;100200.97;5217650;28;20054;-71
2023/09/13 00:47:18;;;;;;;10.90;5.15;;;;;;;18.77;100.00;100204.09;5218479;28;20036;-71
2023/09/13 00:49:49;;;;;;;7.32;4.65;;;;;;;18.84;100.00;100205.31;5216747;28;20502;-70
2023/09/13 00:52:21;;;;;;;9.48;4.35;;;;;;;18.71;100.00;100201.06;5217528;28;20108;-72
2023/09/13 00:54:53;;;;;;;8.90;3.67;;;;;;;18.76;100.00;100191.81;5216604;28;20034;-72
2023/09/13 00:57:23;;;;;;;7.85;3.28;;;;;;;18.79;100.00;100189.75;5218012;28;20028;-72
2023/09/13 00:59:54;;;;;;;7.68;2.92;;;;;;;18.81;100.00;100194.97;5197870;28;20028;-71
2023/09/13 01:02:24;;;;;;;6.43;3.03;;;;;;;18.66;100.00;100195.28;5199550;28;20055;-71
2023/09/13 01:04:54;;;;;;;12.40;3.00;;;;;;;18.66;100.00;100193.44;5216357;28;20033;-71
2023/09/13 01:07:25;;;;;;;8.77;2.92;;;;;;;18.63;100.00;100191.03;5199800;28;20025;-71
2023/09/13 01:09:55;;;;;;;5.43;2.75;;;;;;;18.64;100.00;100197.16;5198365;28;20024;-71
2023/09/13 01:12:25;;;;;;;8.43;2.80;;;;;;;18.66;100.00;100192.63;5217255;28;20035;-72
2023/09/13 01:14:56;;;;;;;6.65;2.88;;;;;;;18.56;100.00;100189.81;5215677;28;20039;-71
2023/09/13 01:17:49;;;;;;;6.10;2.88;;;;;;;18.56;100.00;100200.41;5217623;28;20021;-72
2023/09/13 01:20:57;;;;;;;6.65;2.60;;;;;;;18.45;100.00;100195.06;5205961;28;20098;-72
2023/09/13 01:24:06;;;;;;;5.00;2.20;;;;;;;18.59;100.00;100204.59;5197311;28;20039;-71
2023/09/13 01:27:23;;;;;;;6.10;2.42;;;;;;;18.58;100.00;100203.78;5216534;28;20028;-72
2023/09/13 01:29:56;;;;;;;4.97;2.13;;;;;;;18.62;100.00;100209.66;5109488;28;20023;-71
2023/09/13 01:32:26;;;;;;;6.40;1.88;;;;;;;18.50;100.00;100202.66;5200810;28;20394;-71
2023/09/13 01:34:56;;;;;;;4.07;1.80;;;;;;;18.36;100.00;100197.53;5216380;28;20036;-72
2023/09/13 01:37:30;;;;;;;3.60;1.80;;;;;;;18.30;100.00;100195.31;5217537;28;20104;-71
2023/09/13 01:40:00;;;;;;;7.85;2.22;;;;;;;18.18;100.00;100191.72;5198375;28;20036;-71
2023/09/13 01:42:31;;;;;;;5.22;1.95;;;;;;;18.29;100.00;100190.97;5216282;28;20021;-70
2023/09/13 01:45:03;;;;;;;4.40;1.88;;;;;;;18.34;100.00;100189.69;5216563;28;20386;-72
2023/09/13 01:47:34;;;;;;;3.58;1.80;;;;;;;18.31;100.00;100183.81;5198069;28;20051;-71
2023/09/13 01:50:05;;;;;;;2.85;1.65;;;;;;;18.34;100.00;100175.63;5215623;28;20025;-71
2023/09/13 01:52:36;;;;;;;3.80;1.65;;;;;;;18.34;100.00;100173.81;5215063;28;20025;-71
2023/09/13 01:55:07;;;;;;;4.63;1.80;;;;;;;18.30;100.00;100172.34;5216593;28;20082;-71
2023/09/13 01:57:39;;;;;;;4.25;1.55;;;;;;;18.17;100.00;100168.88;5216083;28;20029;-71
2023/09/13 02:00:11;;;;;;;5.63;1.80;;;;;;;18.18;100.00;100156.50;5198494;28;20078;-72
2023/09/13 02:02:41;;;;;;;3.47;1.55;;;;;;;18.23;100.00;100168.44;5215690;28;20024;-72
2023/09/13 02:05:11;;;;;;;5.57;1.75;;;;;;;18.19;100.00;100159.03;5198211;28;20245;-72
2023/09/13 02:07:41;;;;;;;4.28;1.70;;;;;;;18.16;100.00;100159.25;5215976;28;20222;-71
2023/09/13 02:10:12;;;;;;;4.43;1.77;;;;;;;18.13;100.00;100153.34;5214868;28;20526;-71
2023/09/13 02:12:42;;;;;;;4.88;1.77;;;;;;;18.26;100.00;100170.00;5213611;28;20037;-71
2023/09/13 02:15:12;;;;;;;3.97;1.90;;;;;;;18.11;100.00;100155.25;5215560;28;20404;-71
2023/09/13 02:17:43;;;;;;;4.10;1.58;;;;;;;17.98;100.00;100143.91;5197464;28;20028;-71
2023/09/13 02:20:13;;;;;;;5.45;1.70;;;;;;;17.91;100.00;100140.84;5216006;28;20033;-72
2023/09/13 02:22:43;;;;;;;4.90;1.58;;;;;;;17.85;100.00;100122.75;5215423;28;20462;-72
2023/09/13 02:25:14;;;;;;;13.50;2.47;;;;;;;18.17;100.00;100120.44;5198293;28;20052;-71
2023/09/13 02:27:44;;;;;;;7.00;2.28;;;;;;;18.24;100.00;100126.94;5215845;28;20035;-71
2023/09/13 02:30:14;;;;;;;5.63;1.77;;;;;;;18.25;100.00;100129.50;5215770;28;20550;-72
2023/09/13 02:32:45;;;;;;;5.47;2.05;;;;;;;18.31;100.00;100141.47;5215331;28;20031;-71
2023/09/13 02:35:15;;;;;;;8.50;1.83;;;;;;;18.25;100.00;100147.16;5216616;28;20060;-72
2023/09/13 02:37:45;;;;;;;5.28;1.83;;;;;;;18.17;100.00;100152.19;5215700;28;20505;-71
2023/09/13 02:40:16;;;;;;;4.63;1.98;;;;;;;18.06;100.00;100158.25;5215096;28;20060;-72
2023/09/13 02:42:46;;;;;;;3.78;1.90;;;;;;;18.03;100.00;100147.03;5199613;28;20526;-71
2023/09/13 02:45:16;;;;;;;6.53;1.77;;;;;;;18.06;100.00;100146.81;5212579;28;20060;-70
2023/09/13 02:47:47;;;;;;;4.05;1.80;;;;;;;18.13;100.00;100148.91;5194050;28;20898;-70
2023/09/13 02:50:17;;;;;;;5.10;2.05;;;;;;;18.03;100.00;100157.63;5207253;28;20029;-71
2023/09/13 02:52:47;;;;;;;8.15;2.45;;;;;;;18.02;100.00;100151.47;5195241;28;20059;-70
2023/09/13 02:55:17;;;;;;;3.53;1.70;;;;;;;18.12;100.00;100154.28;5201358;28;20028;-71
2023/09/13 02:57:48;;;;;;;3.95;1.70;;;;;;;18.14;100.00;100140.00;5217040;28;20502;-72
2023/09/13 03:00:18;;;;;;;5.03;2.33;;;;;;;18.02;100.00;100148.00;5219180;28;20112;-71
2023/09/13 03:02:49;;;;;;;5.03;2.20;;;;;;;18.09;100.00;100155.38;5219442;28;20021;-71
2023/09/13 03:05:19;;;;;;;2.95;1.55;;;;;;;18.13;100.00;100159.47;5202172;28;20505;-71
2023/09/13 03:07:49;;;;;;;4.28;1.80;;;;;;;18.08;100.00;100166.06;5218903;28;20378;-71
2023/09/13 03:10:20;;;;;;;3.10;1.75;;;;;;;18.00;100.00;100157.84;5202636;28;20024;-71
2023/09/13 03:12:50;;;;;;;4.55;1.80;;;;;;;18.04;100.00;100160.13;5218725;28;20029;-71
2023/09/13 03:15:20;;;;;;;7.93;2.00;;;;;;;18.09;100.00;100167.75;5218378;28;20497;-71
2023/09/13 03:17:50;;;;;;;5.25;1.80;;;;;;;17.99;100.00;100164.94;5203243;28;20021;-72
2023/09/13 03:20:21;;;;;;;5.32;2.10;;;;;;;17.95;100.00;100162.59;5218647;28;20033;-72
2023/09/13 03:22:51;;;;;;;3.50;1.98;;;;;;;17.99;100.00;100161.47;5218091;28;20029;-71
2023/09/13 03:25:21;;;;;;;6.35;2.15;;;;;;;18.03;100.00;100161.09;5218956;28;20036;-72
2023/09/13 03:27:52;;;;;;;5.53;2.20;;;;;;;18.02;100.00;100158.59;5200808;28;20121;-71
2023/09/13 03:30:22;;;;;;;6.90;2.17;;;;;;;18.01;100.00;100155.06;5218155;28;20153;-72
2023/09/13 03:32:52;;;;;;;7.13;2.05;;;;;;;18.01;100.00;100151.59;5218432;28;20490;-71
2023/09/13 03:35:23;;;;;;;3.97;1.75;;;;;;;18.02;100.00;100155.94;5219115;28;20033;-72
2023/09/13 03:37:53;;;;;;;6.68;2.10;;;;;;;18.03;100.00;100166.38;5218099;28;20120;-71
2023/09/13 03:40:24;;;;;;;6.05;2.28;;;;;;;17.91;100.00;100158.50;5219123;28;20044;-71
2023/09/13 03:42:54;;;;;;;6.60;2.05;;;;;;;17.88;100.00;100164.00;5217831;28;20371;-71
2023/09/13 03:45:24;;;;;;;4.82;2.13;;;;;;;17.92;100.00;100162.84;5218656;28;20025;-71
2023/09/13 03:47:54;;;;;;;3.65;2.10;;;;;;;17.89;100.00;100168.34;5217191;28;20489;-71
2023/09/13 03:50:25;;;;;;;4.75;2.42;;;;;;;17.94;100.00;100168.84;5223128;28;20025;-72
2023/09/13 03:52:55;;;;;;;4.80;2.35;;;;;;;17.98;100.00;100175.63;5218149;28;20033;-71
2023/09/13 03:55:26;;;;;;;5.43;3.08;;;;;;;17.90;100.00;100172.69;5218561;28;20272;-71
2023/09/13 03:57:56;;;;;;;6.72;3.08;;;;;;;17.96;100.00;100177.53;5218746;28;20032;-72
2023/09/13 04:00:26;;;;;;;9.88;3.22;;;;;;;18.01;100.00;100167.47;5218801;28;20025;-71
2023/09/13 04:02:57;;;;;;;10.90;3.60;;;;;;;18.03;100.00;100176.97;5218594;28;20099;-72
2023/09/13 04:05:27;;;;;;;4.35;2.45;;;;;;;18.07;100.00;100178.47;5218281;28;20024;-71
2023/09/13 04:07:58;;;;;;;4.75;2.05;;;;;;;18.14;100.00;100176.22;5217397;28;20083;-71
2023/09/13 04:10:28;;;;;;;6.60;2.72;;;;;;;18.12;100.00;100183.38;5217410;28;20033;-70
2023/09/13 04:12:58;;;;;;;8.55;2.50;;;;;;;18.08;100.00;100182.78;5218630;28;20039;-71
2023/09/13 04:15:29;;;;;;;10.48;2.75;;;;;;;18.03;100.00;100189.38;5199727;28;20029;-70
2023/09/13 04:17:59;;;;;;;6.00;2.60;;;;;;;18.07;100.00;100189.03;5218622;28;20123;-71
2023/09/13 04:20:29;;;;;;;6.28;2.92;;;;;;;18.03;100.00;100199.94;5216830;28;20023;-71
2023/09/13 04:23:00;;;;;;;6.25;2.50;;;;;;;18.10;100.00;100190.59;5217814;28;20071;-71
2023/09/13 04:25:30;;;;;;;5.70;2.92;;;;;;;18.07;100.00;100198.75;5217180;28;20230;-71
2023/09/13 04:28:00;;;;;;;6.47;2.50;;;;;;;18.12;100.00;100199.25;5218792;28;20116;-71
2023/09/13 04:30:31;;;;;;;7.75;2.67;;;;;;;18.07;100.00;100206.69;5216880;28;20025;-71
2023/09/13 04:33:03;;;;;;;9.07;3.08;;;;;;;18.05;100.00;100203.31;5200108;28;20021;-71
2023/09/13 04:35:33;;;;;;;6.28;3.05;;;;;;;18.06;100.00;100199.72;5199520;28;20029;-71
2023/09/13 04:38:03;;;;;;;10.95;3.58;;;;;;;18.01;100.00;100197.41;5200676;28;20668;-71
2023/09/13 04:40:34;;;;;;;8.27;3.40;;;;;;;18.05;100.00;100201.53;5216650;28;20035;-71
2023/09/13 04:43:07;;;;;;;9.48;3.80;;;;;;;18.04;100.00;100201.63;5218082;28;20036;-72
2023/09/13 04:45:37;;;;;;;8.88;3.50;;;;;;;18.00;100.00;100200.16;5198731;28;20033;-71
2023/09/13 04:48:08;;;;;;;7.53;3.55;;;;;;;18.00;100.00;100208.94;5218076;28;20409;-71
2023/09/13 04:50:38;;;;;;;11.85;4.00;;;;;;;17.97;100.00;100211.78;5219351;28;20032;-71
2023/09/13 04:53:08;;;;;;;9.57;3.45;;;;;;;18.05;100.00;100213.91;5218390;28;20473;-72
2023/09/13 04:55:42;;;;;;;9.40;4.28;;;;;;;18.03;100.00;100213.16;5220061;28;20036;-71
2023/09/13 04:58:12;;;;;;;7.70;4.07;;;;;;;18.10;100.00;100212.63;5218663;28;20025;-71
2023/09/13 05:00:43;;;;;;;12.15;4.75;;;;;;;18.08;100.00;100203.09;5217050;28;20051;-71
2023/09/13 05:03:13;;;;;;;8.90;5.05;;;;;;;18.20;100.00;100207.50;5217649;28;20048;-71
2023/09/13 05:05:43;;;;;;;10.93;4.90;;;;;;;18.08;100.00;100211.03;5216976;28;20032;-72
2023/09/13 05:08:15;;;;;;;8.20;4.50;;;;;;;18.14;100.00;100218.53;5217650;28;20371;-71
2023/09/13 05:10:45;;;;;;;10.65;5.00;;;;;;;18.10;100.00;100220.56;5217488;28;20031;-71
2023/09/13 05:13:16;;;;;;;6.65;4.20;;;;;;;18.01;100.00;100223.84;5239956;22;20049;-79
2023/09/13 05:15:46;;;;;;;10.00;4.80;;;;;;;18.02;100.00;100224.69;5214897;28;20044;-79
2023/09/13 05:18:17;;;;;;;10.88;4.85;;;;;;;17.98;100.00;100217.94;5197150;28;20020;-79
2023/09/13 05:20:47;;;;;;;7.90;4.65;;;;;;;18.02;100.00;100222.06;5214103;28;20680;-79
2023/09/13 05:23:18;;;;;;;9.68;4.55;;;;;;;18.25;100.00;100231.81;5213945;28;20126;-78
2023/09/13 05:25:49;;;;;;;10.20;5.03;;;;;;;18.24;100.00;100230.13;5220425;28;20582;-78
2023/09/13 05:28:19;;;;;;;9.68;5.57;;;;;;;18.22;100.00;100227.63;5217818;28;20025;-79
2023/09/13 05:30:49;;;;;;;14.65;7.00;;;;;;;18.30;100.00;100237.66;5217397;28;20035;-77
2023/09/13 05:33:19;;;;;;;14.50;6.93;;;;;;;18.44;100.00;100237.50;5217698;28;20025;-78
2023/09/13 05:35:50;;;;;;;14.38;7.95;;;;;;;18.30;100.00;100240.28;5216958;28;20036;-77
2023/09/13 05:38:21;;;;;;;11.13;7.20;;;;;;;18.41;100.00;100237.72;5199675;28;20067;-78
2023/09/13 05:40:51;;;;;;;12.63;6.72;;;;;;;18.36;100.00;100240.69;5198630;28;20410;-76
2023/09/13 05:43:21;;;;;;;15.45;7.43;;;;;;;18.36;100.00;100235.41;5216785;28;20029;-78
2023/09/13 05:45:52;;;;;;;13.80;7.72;;;;;;;18.42;100.00;100240.28;5215623;28;20123;-77
2023/09/13 05:48:23;;;;;;;11.55;7.35;;;;;;;18.49;100.00;100245.97;5215244;28;20021;-77
2023/09/13 05:50:53;;;;;;;12.10;7.10;;;;;;;18.52;100.00;100249.22;5221819;28;20044;-75
2023/09/13 05:53:23;;;;;;;11.32;6.80;;;;;;;18.56;100.00;100252.50;5201600;28;20286;-77
2023/09/13 05:55:54;;;;;;;12.07;7.20;;;;;;;18.59;100.00;100249.63;5216819;28;20033;-75
2023/09/13 05:58:24;;;;;;;10.75;7.05;;;;;;;18.51;100.00;100255.47;5217407;28;20108;-78
2023/09/13 06:00:55;;;;;;;11.60;8.27;;;;;;;18.60;100.00;100251.31;5216189;28;20045;-78
2023/09/13 06:03:26;;;;;;;14.95;7.65;;;;;;;18.54;100.00;100244.66;5217352;28;20025;-78
2023/09/13 06:05:56;;;;;;;10.88;6.97;;;;;;;18.84;100.00;100251.19;5216791;28;20039;-75
2023/09/13 06:08:26;;;;;;;9.63;6.40;;;;;;;19.10;100.00;100255.38;5218001;28;20036;-75
2023/09/13 06:10:57;;;;;;;10.15;6.70;;;;;;;19.13;100.00;100259.59;5216551;28;20032;-75
2023/09/13 06:13:27;;;;;;;10.50;6.38;;;;;;;19.19;100.00;100265.31;5216798;28;20601;-76
2023/09/13 06:15:57;;;;;;;10.15;6.35;;;;;;;19.49;100.00;100264.78;5199007;28;20032;-76
2023/09/13 06:18:28;;;;;;;12.52;6.88;;;;;;;19.48;100.00;100263.94;5216329;28;20033;-73
2023/09/13 06:20:59;;;;;;;7.68;6.10;;;;;;;19.80;100.00;100261.44;5217180;28;20401;-76
2023/09/13 06:23:39;;;;;;;10.15;5.70;;;;;;;19.82;100.00;100263.00;5214425;28;20052;-74
2023/09/13 06:26:10;;;;;;;10.02;6.10;;;;;;;19.91;100.00;100258.78;5214519;28;20386;-75
2023/09/13 06:28:40;;;;;;;9.07;6.00;;;;;;;19.91;100.00;100259.63;5216867;28;20021;-76
2023/09/13 06:31:10;;;;;;;7.82;5.63;;;;;;;20.07;100.00;100268.09;5218239;28;20258;-75
2023/09/13 06:33:41;;;;;;;8.70;5.88;;;;;;;20.18;100.00;100269.91;5220107;28;20072;-76
2023/09/13 06:36:11;;;;;;;8.88;5.40;;;;;;;20.32;100.00;100274.97;5221519;28;20048;-76
2023/09/13 06:38:41;;;;;;;10.57;5.55;;;;;;;20.10;100.00;100283.78;5219276;28;20021;-75
2023/09/13 06:41:12;;;;;;;8.95;5.60;;;;;;;20.23;100.00;100275.69;5220759;28;20091;-75
2023/09/13 06:43:44;;;;;;;8.93;5.90;;;;;;;20.16;100.00;100285.94;5204164;28;20021;-75
2023/09/13 06:46:14;;;;;;;8.38;4.82;;;;;;;20.15;100.00;100292.22;5220754;28;20712;-75
2023/09/13 06:48:44;;;;;;;7.95;5.20;;;;;;;20.34;100.00;100296.91;5219564;28;20650;-77
2023/09/13 06:51:14;;;;;;;8.38;4.97;;;;;;;20.09;100.00;100299.84;5220594;28;20045;-76
2023/09/13 06:53:45;;;;;;;8.30;5.20;;;;;;;19.86;100.00;100303.41;5201806;28;20063;-76
2023/09/13 06:56:15;;;;;;;8.27;5.45;;;;;;;19.67;100.00;100303.13;5221125;28;20279;-76
2023/09/13 06:58:45;;;;;;;8.55;5.93;;;;;;;19.57;100.00;100307.44;5219911;28;20024;-76
2023/09/13 07:01:16;;;;;;;7.38;5.13;;;;;;;19.71;100.00;100305.44;5202302;28;20032;-74
2023/09/13 07:03:47;;;;;;;8.35;5.57;;;;;;;19.72;100.00;100316.88;5201476;28;20029;-75
2023/09/13 07:06:17;;;;;;;7.68;5.10;;;;;;;19.81;100.00;100317.00;5202949;28;20025;-75
2023/09/13 07:08:47;;;;;;;8.75;4.80;;;;;;;20.08;100.00;100319.34;5197960;28;20037;-75
2023/09/13 07:11:18;;;;;;;7.13;4.68;;;;;;;20.05;100.00;100314.28;5201238;28;20025;-76
2023/09/13 07:13:49;;;;;;;9.90;5.38;;;;;;;20.04;100.00;100326.72;5201606;28;20119;-76
2023/09/13 07:16:19;;;;;;;8.30;5.72;;;;;;;19.89;100.00;100324.38;5220191;28;20466;-76
2023/09/13 07:18:49;;;;;;;6.85;4.93;;;;;;;19.77;100.00;100336.78;5201848;28;20028;-76
2023/09/13 07:21:20;;;;;;;8.23;4.55;;;;;;;19.77;100.00;100320.88;5202968;28;20111;-75
2023/09/13 07:23:51;;;;;;;8.88;4.85;;;;;;;19.79;100.00;100332.19;5219211;28;20028;-75
2023/09/13 07:26:21;;;;;;;7.97;4.85;;;;;;;19.71;100.00;100336.41;5220218;28;20040;-76
2023/09/13 07:28:51;;;;;;;7.63;5.20;;;;;;;19.75;100.00;100348.50;5219351;28;20096;-76
2023/09/13 07:31:22;;;;;;;8.80;5.15;;;;;;;19.66;100.00;100344.75;5219781;28;20040;-75
2023/09/13 07:33:52;;;;;;;7.75;4.90;;;;;;;19.69;100.00;100349.81;5201591;28;20035;-75
2023/09/13 07:36:23;;;;;;;7.88;4.78;;;;;;;19.56;100.00;100346.38;5220598;28;20043;-76
2023/09/13 07:38:54;;;;;;;9.20;5.40;;;;;;;19.47;100.00;100349.72;5219097;28;20174;-76
2023/09/13 07:41:24;;;;;;;10.77;5.18;;;;;;;19.57;100.00;100350.72;5219039;28;20025;-73
2023/09/13 07:43:55;;;;;;;7.78;4.88;;;;;;;19.66;100.00;100355.34;5219111;28;20506;-75
2023/09/13 07:46:25;;;;;;;6.93;4.93;;;;;;;19.63;100.00;100352.06;5219623;28;20037;-73
2023/09/13 07:48:55;;;;;;;7.30;5.03;;;;;;;19.55;100.00;100349.16;5219308;28;20107;-75
2023/09/13 07:51:26;;;;;;;7.47;4.85;;;;;;;19.68;100.00;100349.91;5200601;28;20119;-72
2023/09/13 07:54:07;;;;;;;7.70;5.20;;;;;;;19.76;100.00;100339.56;5218977;28;20025;-76
2023/09/13 07:56:37;;;;;;;9.80;5.00;;;;;;;19.93;100.00;100345.25;5218573;28;20021;-76
2023/09/13 07:59:08;;;;;;;8.73;5.45;;;;;;;21.13;100.00;100348.78;5220144;28;20090;-75
2023/09/13 08:01:40;;;;;;;6.03;4.13;;;;;;;23.05;100.00;100344.22;5215846;28;20021;-75
2023/09/13 08:04:10;;;;;;;5.82;3.88;;;;;;;22.99;100.00;100346.63;5220077;28;20386;-75
2023/09/13 08:06:41;;;;;;;6.20;3.30;;;;;;;22.54;100.00;100357.88;5218802;28;20029;-76
2023/09/13 08:09:15;;;;;;;6.70;3.63;;;;;;;21.85;100.00;100367.47;5218753;28;20025;-75
2023/09/13 08:11:47;;;;;;;6.25;3.85;;;;;;;21.32;100.00;100365.78;5218017;28;20530;-75
2023/09/13 08:14:17;;;;;;;6.85;4.53;;;;;;;21.20;100.00;100368.63;5219087;28;20044;-76
2023/09/13 08:16:47;;;;;;;9.23;4.80;;;;;;;21.24;100.00;100368.22;5217945;28;20409;-77
2023/09/13 08:19:17;;;;;;;7.18;4.65;;;;;;;21.21;100.00;100383.59;5218887;28;20267;-76
2023/09/13 08:21:48;;;;;;;8.15;4.78;;;;;;;20.81;100.00;100385.94;5217808;28;20519;-75
2023/09/13 08:24:18;;;;;;;9.20;4.80;;;;;;;20.85;100.00;100386.56;5222258;28;20032;-75
2023/09/13 08:26:48;;;;;;;7.72;4.20;;;;;;;21.02;100.00;100399.31;5222115;28;20319;-75
2023/09/13 08:29:19;;;;;;;7.15;4.85;;;;;;;20.79;100.00;100395.00;5219165;28;20167;-74
2023/09/13 08:31:49;;;;;;;9.55;4.97;;;;;;;20.58;100.00;100394.06;5219308;28;20029;-75
2023/09/13 08:34:19;;;;;;;6.32;4.28;;;;;;;21.34;100.00;100400.19;5219622;28;20079;-74
2023/09/13 08:36:53;;;;;;;9.13;5.00;;;;;;;21.51;100.00;100402.31;5217984;28;20561;-75
2023/09/13 08:39:24;;;;;;;6.25;3.90;;;;;;;21.70;100.00;100408.66;5218796;28;20280;-75
2023/09/13 08:41:55;;;;;;;9.10;4.45;;;;;;;21.65;100.00;100405.56;5217746;28;20029;-75
2023/09/13 08:44:27;;;;;;;7.93;4.63;;;;;;;21.26;100.00;100418.59;5201375;28;20021;-74
2023/09/13 08:46:58;;;;;;;6.05;3.88;;;;;;;21.05;100.00;100417.72;5200503;28;20401;-75
2023/09/13 08:49:29;;;;;;;5.65;4.00;;;;;;;21.21;100.00;100421.63;5200165;28;20053;-74
2023/09/13 08:52:00;;;;;;;6.57;4.22;;;;;;;21.25;100.00;100432.88;5217718;28;20025;-75
2023/09/13 08:54:32;;;;;;;5.95;3.85;;;;;;;21.31;100.00;100427.03;5217169;28;20032;-76
2023/09/13 08:57:03;;;;;;;6.97;4.20;;;;;;;21.37;100.00;100437.19;5200282;28;20423;-76
2023/09/13 08:59:34;;;;;;;5.57;3.58;;;;;;;21.57;100.00;100433.75;5216614;28;20036;-76
2023/09/13 09:02:05;;;;;;;6.50;3.67;;;;;;;21.33;100.00;100444.56;5218085;28;20390;-75
2023/09/13 09:04:36;;;;;;;7.88;3.80;;;;;;;21.13;100.00;100444.50;5217827;28;20082;-75
2023/09/13 09:07:07;;;;;;;7.00;4.65;;;;;;;20.96;100.00;100442.34;5218189;28;20110;-76
2023/09/13 09:09:38;;;;;;;10.25;5.05;;;;;;;20.90;100.00;100440.19;5216327;28;20032;-73
2023/09/13 09:12:11;;;;;;;9.38;5.60;;;;;;;20.96;100.00;100439.69;5214676;28;20488;-74
2023/09/13 09:14:44;;;;;;;7.65;5.63;;;;;;;21.30;100.00;100442.19;5216227;28;20029;-74
2023/09/13 09:17:17;;;;;;;8.82;5.70;;;;;;;22.14;100.00;100439.50;5218751;28;20038;-75
2023/09/13 09:19:47;;;;;;;9.60;6.10;;;;;;;22.10;100.00;100436.25;5216863;28;20040;-76
2023/09/13 09:22:18;;;;;;;7.15;5.93;;;;;;;21.84;100.00;100439.44;5219320;28;20021;-75
2023/09/13 09:24:50;;;;;;;7.03;5.55;;;;;;;21.56;100.00;100442.69;5217632;28;20025;-74
2023/09/13 09:27:20;;;;;;;10.10;5.75;;;;;;;21.27;100.00;100446.88;5218005;28;20049;-75
2023/09/13 09:30:03;;;;;;;6.40;5.18;;;;;;;21.31;100.00;100450.97;5216560;28;20032;-72
2023/09/13 09:32:38;;;;;;;8.00;5.18;;;;;;;21.02;100.00;100448.03;5199681;28;20060;-74
2023/09/13 09:35:09;;;;;;;10.35;5.78;;;;;;;21.05;100.00;100447.78;5218718;28;20029;-75
2023/09/13 09:37:39;;;;;;;8.15;5.60;;;;;;;20.93;100.00;100453.22;5214582;28;20059;-76
2023/09/13 09:40:11;;;;;;;6.82;5.38;;;;;;;21.07;100.00;100448.50;5217370;28;20305;-76
2023/09/13 09:42:42;;;;;;;9.02;6.30;;;;;;;21.28;100.00;100448.56;5216671;28;20028;-75
2023/09/13 09:45:12;;;;;;;7.82;5.90;;;;;;;21.60;100.00;100438.81;5218825;28;20025;-75
2023/09/13 09:47:43;;;;;;;10.20;5.53;;;;;;;21.91;100.00;100438.78;5216494;28;20110;-75
2023/09/13 09:50:14;;;;;;;6.43;5.20;;;;;;;22.05;100.00;100446.47;5199964;28;20081;-76
2023/09/13 09:52:50;;;;;;;7.00;5.10;;;;;;;22.67;100.00;100446.41;5215741;28;20494;-75
2023/09/13 09:55:23;;;;;;;8.02;4.72;;;;;;;22.80;100.00;100451.38;5198583;28;20112;-75
2023/09/13 09:57:53;;;;;;;6.18;4.75;;;;;;;22.76;100.00;100449.13;5196393;28;20025;-76
2023/09/13 10:00:23;;;;;;;7.35;4.38;;;;;;;23.08;100.00;100442.66;5214493;28;20072;-75
2023/09/13 10:02:55;;;;;;;7.25;3.78;;;;;;;23.06;100.00;100443.75;5213785;28;20040;-76
2023/09/13 10:05:25;;;;;;;4.68;3.35;;;;;;;23.08;100.00;100439.13;5216357;28;20127;-76
2023/09/13 10:07:55;;;;;;;6.37;3.50;;;;;;;23.52;100.00;100436.84;5218118;28;20111;-76
2023/09/13 10:10:33;;;;;;;5.25;3.42;;;;;;;23.13;100.00;100448.44;5218981;28;20311;-76
2023/09/13 10:13:04;;;;;;;5.43;2.97;;;;;;;22.93;100.00;100444.00;5219808;28;20513;-76
2023/09/13 10:15:34;;;;;;;4.38;3.00;;;;;;;23.01;100.00;100449.50;5220759;28;20107;-75
2023/09/13 10:18:06;;;;;;;4.15;2.63;;;;;;;22.87;100.00;100452.53;5202696;28;20043;-74
2023/09/13 10:20:37;;;;;;;3.38;2.42;;;;;;;23.17;100.00;100451.69;5220262;28;20376;-75
2023/09/13 10:23:11;;;;;;;2.70;1.92;;;;;;;23.53;99.71;100451.03;5220330;28;20024;-76
2023/09/13 10:25:43;;;;;;;2.92;2.20;;;;;;;23.51;98.67;100453.84;5216595;28;20339;-74
2023/09/13 10:28:17;;;;;;;2.85;2.00;;;;;;;23.57;97.75;100458.59;5218948;28;20078;-75
2023/09/13 10:30:49;;;;;;;2.95;1.80;;;;;;;23.55;96.59;100465.91;5219150;28;20036;-76
2023/09/13 10:33:21;;;;;;;3.22;1.90;;;;;;;23.17;97.27;100465.84;5202597;28;20031;-75
2023/09/13 10:35:58;;;;;;;3.70;2.30;;;;;;;23.08;97.59;100460.47;5209094;28;20029;-74
2023/09/13 10:38:41;;;;;;;2.53;1.90;;;;;;;22.81;100.00;100468.25;5209592;28;20078;-73
2023/09/13 10:41:17;;;;;;;2.67;1.95;;;;;;;22.87;100.00;100465.03;5228908;28;20100;-75
2023/09/13 10:43:49;;;;;;;6.75;2.20;;;;;;;22.79;100.00;100473.69;5209231;28;20485;-76
2023/09/13 10:46:21;;;;;;;2.72;1.70;;;;;;;22.71;100.00;100470.00;5205080;28;20059;-77
2023/09/13 10:48:52;;;;;;;2.92;2.10;;;;;;;22.68;100.00;100470.28;5203910;28;20024;-77
2023/09/13 10:51:24;;;;;;;4.22;1.80;;;;;;;22.79;100.00;100476.34;5210262;28;20036;-78
2023/09/13 10:53:55;;;;;;;2.92;2.00;;;;;;;22.91;100.00;100469.09;5224533;28;20119;-77
2023/09/13 10:56:27;;;;;;;2.65;1.60;;;;;;;22.92;100.00;100471.66;5224097;28;20123;-77
2023/09/13 10:58:58;;;;;;;2.40;1.80;;;;;;;23.00;99.53;100469.13;5218516;28;20262;-77
2023/09/13 11:01:30;;;;;;;4.07;1.75;;;;;;;23.11;98.72;100465.50;5219300;28;20108;-75
2023/09/13 11:04:00;;;;;;;2.03;1.50;;;;;;;23.03;100.00;100471.53;5220324;28;20029;-77
2023/09/13 11:06:31;;;;;;;3.20;1.80;;;;;;;22.94;99.08;100475.03;5227907;28;20055;-77
2023/09/13 11:09:13;;;;;;;2.10;1.50;;;;;;;22.95;99.61;100476.72;5226757;28;20089;-78
2023/09/13 11:11:53;;;;;;;1.90;1.20;;;;;;;22.84;100.00;100479.47;5227031;28;20029;-77
2023/09/13 11:14:25;;;;;;;1.88;1.40;;;;;;;22.88;100.00;100472.03;5246577;22;20063;-72
2023/09/13 11:17:10;;;;;;;2.08;1.77;;;;;;;22.73;100.00;100480.56;5204625;28;20032;-72
2023/09/13 11:19:40;;;;;;;3.35;1.70;;;;;;;22.64;100.00;100482.19;5204405;28;20021;-71
2023/09/13 11:22:39;;;;;;;3.83;1.88;;;;;;;22.43;100.00;100475.19;5220039;28;20021;-72
2023/09/13 11:25:12;;;;;;;2.30;1.67;;;;;;;22.48;100.00;100487.16;5203870;28;20033;-71
2023/09/13 11:27:42;;;;;;;3.45;1.63;;;;;;;22.69;100.00;100502.09;5199111;28;20033;-72
2023/09/13 11:30:12;;;;;;;2.80;1.65;;;;;;;22.53;100.00;100510.72;5180480;28;20047;-72
2023/09/13 11:32:43;;;;;;;8.48;2.50;;;;;;;22.28;100.00;100517.25;5197320;28;20055;-72
2023/09/13 11:35:15;;;;;;;4.20;2.50;;;;;;;22.11;100.00;100514.31;5195195;28;20032;-72
2023/09/13 11:37:46;;;;;;;5.57;2.25;;;;;;;21.84;100.00;100529.91;5180585;28;20398;-72